sensor_id;sensor_type;location;lat;lon;timestamp;P1;durP1;ratioP1;P2;durP2;ratioP2
21825;SDS011;11075;47.944;11.776;2023-03-22T00:00:00;5.27;;;3.93;;
21825;SDS011;11075;47.944;11.776;2023-03-22T00:02:27;6.33;;;4.53;;
21825;SDS011;11075;47.944;11.776;2023-03-22T00:04:55;7.80;;;4.50;;
21825;SDS011;11075;47.944;11.776;2023-03-22T00:07:22;5.83;;;3.83;;
21825;SDS011;11075;47.944;11.776;2023-03-22T00:09:49;7.57;;;4.13;;
21825;SDS011;11075;47.944;11.776;2023-03-22T00:12:16;6.47;;;4.60;;
21825;SDS011;11075;47.944;11.776;2023-03-22T00:14:44;5.23;;;4.20;;
21825;SDS011;11075;47.944;11.776;2023-03-22T00:17:10;10.73;;;4.40;;
21825;SDS011;11075;47.944;11.776;2023-03-22T00:19:37;5.67;;;4.33;;
21825;SDS011;11075;47.944;11.776;2023-03-22T00:22:07;8.10;;;4.73;;
21825;SDS011;11075;47.944;11.776;2023-03-22T00:24:34;7.50;;;4.80;;
21825;SDS011;11075;47.944;11.776;2023-03-22T00:27:01;5.93;;;4.40;;
21825;SDS011;11075;47.944;11.776;2023-03-22T00:29:28;6.87;;;5.03;;
21825;SDS011;11075;47.944;11.776;2023-03-22T00:31:55;8.13;;;5.10;;
21825;SDS011;11075;47.944;11.776;2023-03-22T00:34:22;9.83;;;5.23;;
21825;SDS011;11075;47.944;11.776;2023-03-22T00:36:49;8.20;;;4.93;;
21825;SDS011;11075;47.944;11.776;2023-03-22T00:39:17;8.60;;;5.00;;
21825;SDS011;11075;47.944;11.776;2023-03-22T00:41:44;8.10;;;5.43;;
21825;SDS011;11075;47.944;11.776;2023-03-22T00:44:10;8.50;;;4.90;;
21825;SDS011;11075;47.944;11.776;2023-03-22T00:46:37;9.33;;;5.40;;
21825;SDS011;11075;47.944;11.776;2023-03-22T00:49:05;9.70;;;5.33;;
21825;SDS011;11075;47.944;11.776;2023-03-22T00:51:31;8.47;;;5.63;;
21825;SDS011;11075;47.944;11.776;2023-03-22T00:53:58;10.73;;;5.10;;
21825;SDS011;11075;47.944;11.776;2023-03-22T00:56:26;9.97;;;5.57;;
21825;SDS011;11075;47.944;11.776;2023-03-22T00:59:10;8.50;;;5.23;;
21825;SDS011;11075;47.944;11.776;2023-03-22T01:01:39;6.90;;;4.90;;
21825;SDS011;11075;47.944;11.776;2023-03-22T01:04:07;6.17;;;5.17;;
21825;SDS011;11075;47.944;11.776;2023-03-22T01:06:34;9.23;;;5.97;;
21825;SDS011;11075;47.944;11.776;2023-03-22T01:09:01;6.63;;;5.60;;
21825;SDS011;11075;47.944;11.776;2023-03-22T01:11:28;10.50;;;5.20;;
21825;SDS011;11075;47.944;11.776;2023-03-22T01:13:54;7.60;;;5.47;;
21825;SDS011;11075;47.944;11.776;2023-03-22T01:16:23;7.73;;;5.40;;
21825;SDS011;11075;47.944;11.776;2023-03-22T01:18:50;8.33;;;5.53;;
21825;SDS011;11075;47.944;11.776;2023-03-22T01:21:17;7.30;;;4.97;;
21825;SDS011;11075;47.944;11.776;2023-03-22T01:23:44;9.30;;;5.03;;
21825;SDS011;11075;47.944;11.776;2023-03-22T01:26:11;7.80;;;5.13;;
21825;SDS011;11075;47.944;11.776;2023-03-22T01:28:38;6.93;;;4.90;;
21825;SDS011;11075;47.944;11.776;2023-03-22T01:31:06;8.33;;;4.43;;
21825;SDS011;11075;47.944;11.776;2023-03-22T01:33:33;6.50;;;4.53;;
21825;SDS011;11075;47.944;11.776;2023-03-22T01:36:00;7.57;;;4.40;;
21825;SDS011;11075;47.944;11.776;2023-03-22T01:38:27;6.37;;;4.53;;
21825;SDS011;11075;47.944;11.776;2023-03-22T01:40:57;8.87;;;4.70;;
21825;SDS011;11075;47.944;11.776;2023-03-22T01:43:26;14.17;;;4.60;;
21825;SDS011;11075;47.944;11.776;2023-03-22T01:45:55;7.47;;;5.03;;
21825;SDS011;11075;47.944;11.776;2023-03-22T01:48:27;12.30;;;4.87;;
21825;SDS011;11075;47.944;11.776;2023-03-22T01:51:05;10.00;;;5.47;;
21825;SDS011;11075;47.944;11.776;2023-03-22T01:54:06;5.83;;;4.03;;
21825;SDS011;11075;47.944;11.776;2023-03-22T01:56:38;9.97;;;4.50;;
21825;SDS011;11075;47.944;11.776;2023-03-22T01:59:10;4.80;;;4.03;;
21825;SDS011;11075;47.944;11.776;2023-03-22T02:02:18;8.93;;;4.67;;
21825;SDS011;11075;47.944;11.776;2023-03-22T02:04:54;5.50;;;4.60;;
21825;SDS011;11075;47.944;11.776;2023-03-22T02:07:26;8.57;;;4.63;;
21825;SDS011;11075;47.944;11.776;2023-03-22T02:09:54;9.37;;;4.47;;
21825;SDS011;11075;47.944;11.776;2023-03-22T02:21:11;10.33;;;4.40;;
21825;SDS011;11075;47.944;11.776;2023-03-22T02:24:33;6.10;;;4.67;;
21825;SDS011;11075;47.944;11.776;2023-03-22T02:39:14;5.13;;;3.80;;
21825;SDS011;11075;47.944;11.776;2023-03-22T02:41:26;5.80;;;3.80;;
21825;SDS011;11075;47.944;11.776;2023-03-22T02:44:23;6.27;;;4.20;;
21825;SDS011;11075;47.944;11.776;2023-03-22T02:47:10;4.97;;;4.10;;
21825;SDS011;11075;47.944;11.776;2023-03-22T02:49:40;5.87;;;4.40;;
21825;SDS011;11075;47.944;11.776;2023-03-22T03:00:43;9.47;;;4.03;;
21825;SDS011;11075;47.944;11.776;2023-03-22T03:03:14;4.73;;;4.00;;
21825;SDS011;11075;47.944;11.776;2023-03-22T03:05:45;6.83;;;4.20;;
21825;SDS011;11075;47.944;11.776;2023-03-22T03:08:17;7.40;;;4.40;;
21825;SDS011;11075;47.944;11.776;2023-03-22T03:10:46;10.20;;;4.53;;
21825;SDS011;11075;47.944;11.776;2023-03-22T03:13:14;5.87;;;4.40;;
21825;SDS011;11075;47.944;11.776;2023-03-22T03:15:44;5.77;;;4.60;;
21825;SDS011;11075;47.944;11.776;2023-03-22T03:24:13;5.67;;;4.60;;
21825;SDS011;11075;47.944;11.776;2023-03-22T03:34:58;6.07;;;3.87;;
21825;SDS011;11075;47.944;11.776;2023-03-22T03:37:42;10.20;;;4.13;;
21825;SDS011;11075;47.944;11.776;2023-03-22T03:40:14;6.73;;;4.07;;
21825;SDS011;11075;47.944;11.776;2023-03-22T03:42:47;5.93;;;3.97;;
21825;SDS011;11075;47.944;11.776;2023-03-22T03:45:19;9.07;;;4.80;;
21825;SDS011;11075;47.944;11.776;2023-03-22T03:47:48;7.80;;;4.33;;
21825;SDS011;11075;47.944;11.776;2023-03-22T03:50:23;8.20;;;4.67;;
21825;SDS011;11075;47.944;11.776;2023-03-22T03:52:53;5.23;;;3.83;;
21825;SDS011;11075;47.944;11.776;2023-03-22T03:55:21;6.30;;;4.47;;
21825;SDS011;11075;47.944;11.776;2023-03-22T03:57:48;11.57;;;4.50;;
21825;SDS011;11075;47.944;11.776;2023-03-22T04:00:15;9.87;;;4.23;;
21825;SDS011;11075;47.944;11.776;2023-03-22T04:05:55;7.60;;;4.70;;
21825;SDS011;11075;47.944;11.776;2023-03-22T04:08:22;7.97;;;4.93;;
21825;SDS011;11075;47.944;11.776;2023-03-22T04:10:49;6.60;;;4.73;;
21825;SDS011;11075;47.944;11.776;2023-03-22T04:13:18;6.27;;;4.20;;
21825;SDS011;11075;47.944;11.776;2023-03-22T04:15:51;5.53;;;4.33;;
21825;SDS011;11075;47.944;11.776;2023-03-22T04:18:19;6.57;;;4.60;;
21825;SDS011;11075;47.944;11.776;2023-03-22T04:20:46;5.80;;;4.57;;
21825;SDS011;11075;47.944;11.776;2023-03-22T04:23:15;6.30;;;4.47;;
21825;SDS011;11075;47.944;11.776;2023-03-22T04:25:44;8.60;;;4.53;;
21825;SDS011;11075;47.944;11.776;2023-03-22T04:28:22;7.53;;;4.33;;
21825;SDS011;11075;47.944;11.776;2023-03-22T04:30:49;6.17;;;4.60;;
21825;SDS011;11075;47.944;11.776;2023-03-22T04:33:20;6.57;;;4.00;;
21825;SDS011;11075;47.944;11.776;2023-03-22T04:36:07;12.07;;;4.27;;
21825;SDS011;11075;47.944;11.776;2023-03-22T04:38:48;6.80;;;4.60;;
21825;SDS011;11075;47.944;11.776;2023-03-22T04:41:19;6.80;;;4.80;;
21825;SDS011;11075;47.944;11.776;2023-03-22T04:43:49;8.23;;;4.60;;
21825;SDS011;11075;47.944;11.776;2023-03-22T04:46:17;7.40;;;4.10;;
21825;SDS011;11075;47.944;11.776;2023-03-22T04:48:53;5.43;;;4.00;;
21825;SDS011;11075;47.944;11.776;2023-03-22T04:51:21;6.77;;;4.17;;
21825;SDS011;11075;47.944;11.776;2023-03-22T04:54:08;14.20;;;6.47;;
21825;SDS011;11075;47.944;11.776;2023-03-22T04:56:38;7.93;;;4.23;;
21825;SDS011;11075;47.944;11.776;2023-03-22T04:59:05;6.97;;;4.30;;
21825;SDS011;11075;47.944;11.776;2023-03-22T05:01:31;5.80;;;4.47;;
21825;SDS011;11075;47.944;11.776;2023-03-22T05:04:08;6.53;;;4.03;;
21825;SDS011;11075;47.944;11.776;2023-03-22T05:06:36;5.93;;;4.47;;
21825;SDS011;11075;47.944;11.776;2023-03-22T05:09:15;10.63;;;7.03;;
21825;SDS011;11075;47.944;11.776;2023-03-22T05:11:42;9.07;;;5.60;;
21825;SDS011;11075;47.944;11.776;2023-03-22T05:14:20;14.57;;;5.20;;
21825;SDS011;11075;47.944;11.776;2023-03-22T05:16:48;8.77;;;4.43;;
21825;SDS011;11075;47.944;11.776;2023-03-22T05:19:15;6.67;;;4.70;;
21825;SDS011;11075;47.944;11.776;2023-03-22T05:21:46;7.67;;;5.10;;
21825;SDS011;11075;47.944;11.776;2023-03-22T05:24:13;27.40;;;5.33;;
21825;SDS011;11075;47.944;11.776;2023-03-22T05:26:44;7.50;;;4.90;;
21825;SDS011;11075;47.944;11.776;2023-03-22T05:29:12;8.07;;;5.00;;
21825;SDS011;11075;47.944;11.776;2023-03-22T05:32:04;5.90;;;4.37;;
21825;SDS011;11075;47.944;11.776;2023-03-22T05:34:31;5.60;;;4.17;;
21825;SDS011;11075;47.944;11.776;2023-03-22T05:37:12;5.53;;;3.83;;
21825;SDS011;11075;47.944;11.776;2023-03-22T05:39:55;6.00;;;4.30;;
21825;SDS011;11075;47.944;11.776;2023-03-22T05:42:30;5.37;;;3.63;;
21825;SDS011;11075;47.944;11.776;2023-03-22T05:44:59;4.37;;;3.43;;
21825;SDS011;11075;47.944;11.776;2023-03-22T05:47:26;5.10;;;3.00;;
21825;SDS011;11075;47.944;11.776;2023-03-22T05:50:10;2.77;;;2.53;;
21825;SDS011;11075;47.944;11.776;2023-03-22T05:52:39;3.57;;;2.70;;
21825;SDS011;11075;47.944;11.776;2023-03-22T05:55:27;4.30;;;2.30;;
21825;SDS011;11075;47.944;11.776;2023-03-22T05:57:59;9.97;;;2.50;;
21825;SDS011;11075;47.944;11.776;2023-03-22T06:00:30;3.87;;;2.73;;
21825;SDS011;11075;47.944;11.776;2023-03-22T06:03:32;4.43;;;2.90;;
21825;SDS011;11075;47.944;11.776;2023-03-22T06:06:08;6.00;;;3.03;;
21825;SDS011;11075;47.944;11.776;2023-03-22T06:08:53;5.47;;;3.50;;
21825;SDS011;11075;47.944;11.776;2023-03-22T06:11:32;5.13;;;3.30;;
21825;SDS011;11075;47.944;11.776;2023-03-22T06:14:03;7.17;;;2.93;;
21825;SDS011;11075;47.944;11.776;2023-03-22T06:16:44;4.67;;;2.97;;
21825;SDS011;11075;47.944;11.776;2023-03-22T06:19:11;8.33;;;2.60;;
21825;SDS011;11075;47.944;11.776;2023-03-22T06:21:38;5.97;;;2.60;;
21825;SDS011;11075;47.944;11.776;2023-03-22T06:24:05;7.07;;;3.50;;
21825;SDS011;11075;47.944;11.776;2023-03-22T06:26:33;6.70;;;3.00;;
21825;SDS011;11075;47.944;11.776;2023-03-22T06:28:59;7.40;;;2.90;;
21825;SDS011;11075;47.944;11.776;2023-03-22T06:31:29;6.47;;;2.87;;
21825;SDS011;11075;47.944;11.776;2023-03-22T06:34:02;9.73;;;3.10;;
21825;SDS011;11075;47.944;11.776;2023-03-22T06:36:40;6.57;;;3.53;;
21825;SDS011;11075;47.944;11.776;2023-03-22T06:39:15;5.77;;;2.37;;
21825;SDS011;11075;47.944;11.776;2023-03-22T06:41:43;6.60;;;3.00;;
21825;SDS011;11075;47.944;11.776;2023-03-22T06:44:11;2.73;;;2.20;;
21825;SDS011;11075;47.944;11.776;2023-03-22T06:46:59;2.50;;;2.27;;
21825;SDS011;11075;47.944;11.776;2023-03-22T06:49:58;4.20;;;1.93;;
21825;SDS011;11075;47.944;11.776;2023-03-22T06:52:45;2.87;;;2.07;;
21825;SDS011;11075;47.944;11.776;2023-03-22T06:55:12;5.57;;;2.40;;
21825;SDS011;11075;47.944;11.776;2023-03-22T06:57:39;5.63;;;1.90;;
21825;SDS011;11075;47.944;11.776;2023-03-22T07:00:08;5.27;;;2.00;;
21825;SDS011;11075;47.944;11.776;2023-03-22T07:02:36;2.53;;;1.97;;
21825;SDS011;11075;47.944;11.776;2023-03-22T07:05:23;5.53;;;2.00;;
21825;SDS011;11075;47.944;11.776;2023-03-22T07:07:50;4.93;;;2.00;;
21825;SDS011;11075;47.944;11.776;2023-03-22T07:10:17;3.17;;;2.20;;
21825;SDS011;11075;47.944;11.776;2023-03-22T07:12:43;3.53;;;1.60;;
21825;SDS011;11075;47.944;11.776;2023-03-22T07:15:14;2.53;;;1.60;;
21825;SDS011;11075;47.944;11.776;2023-03-22T07:18:01;1.97;;;1.37;;
21825;SDS011;11075;47.944;11.776;2023-03-22T07:20:30;2.60;;;1.57;;
21825;SDS011;11075;47.944;11.776;2023-03-22T07:22:59;2.10;;;1.27;;
21825;SDS011;11075;47.944;11.776;2023-03-22T07:25:29;8.13;;;1.80;;
21825;SDS011;11075;47.944;11.776;2023-03-22T07:28:10;5.07;;;1.47;;
21825;SDS011;11075;47.944;11.776;2023-03-22T07:30:37;1.90;;;1.60;;
21825;SDS011;11075;47.944;11.776;2023-03-22T07:33:06;1.48;;;1.38;;
21825;SDS011;11075;47.944;11.776;2023-03-22T07:35:34;3.58;;;1.48;;
21825;SDS011;11075;47.944;11.776;2023-03-22T07:38:03;10.88;;;1.70;;
21825;SDS011;11075;47.944;11.776;2023-03-22T07:40:31;2.45;;;1.40;;
21825;SDS011;11075;47.944;11.776;2023-03-22T07:42:58;3.30;;;1.20;;
21825;SDS011;11075;47.944;11.776;2023-03-22T07:45:40;2.42;;;1.40;;
21825;SDS011;11075;47.944;11.776;2023-03-22T07:48:25;3.60;;;1.58;;
21825;SDS011;11075;47.944;11.776;2023-03-22T07:51:15;1.98;;;1.15;;
21825;SDS011;11075;47.944;11.776;2023-03-22T07:53:42;5.43;;;1.73;;
21825;SDS011;11075;47.944;11.776;2023-03-22T07:56:11;7.03;;;2.17;;
21825;SDS011;11075;47.944;11.776;2023-03-22T07:58:40;1.52;;;1.20;;
21825;SDS011;11075;47.944;11.776;2023-03-22T08:01:07;7.43;;;1.80;;
21825;SDS011;11075;47.944;11.776;2023-03-22T08:03:55;1.88;;;1.17;;
21825;SDS011;11075;47.944;11.776;2023-03-22T08:06:34;4.18;;;1.10;;
21825;SDS011;11075;47.944;11.776;2023-03-22T08:09:03;3.90;;;1.17;;
21825;SDS011;11075;47.944;11.776;2023-03-22T08:11:30;1.77;;;0.95;;
21825;SDS011;11075;47.944;11.776;2023-03-22T08:13:58;2.22;;;0.70;;
21825;SDS011;11075;47.944;11.776;2023-03-22T08:16:27;7.38;;;1.10;;
21825;SDS011;11075;47.944;11.776;2023-03-22T08:18:55;2.65;;;1.17;;
21825;SDS011;11075;47.944;11.776;2023-03-22T08:21:24;9.93;;;3.92;;
21825;SDS011;11075;47.944;11.776;2023-03-22T08:23:53;1.75;;;1.08;;
21825;SDS011;11075;47.944;11.776;2023-03-22T08:26:46;0.93;;;0.60;;
21825;SDS011;11075;47.944;11.776;2023-03-22T08:29:28;1.88;;;0.90;;
21825;SDS011;11075;47.944;11.776;2023-03-22T08:31:56;0.77;;;0.70;;
21825;SDS011;11075;47.944;11.776;2023-03-22T08:34:28;1.25;;;1.00;;
21825;SDS011;11075;47.944;11.776;2023-03-22T08:36:57;1.35;;;0.90;;
21825;SDS011;11075;47.944;11.776;2023-03-22T08:39:24;1.92;;;1.00;;
21825;SDS011;11075;47.944;11.776;2023-03-22T08:42:04;4.68;;;1.10;;
21825;SDS011;11075;47.944;11.776;2023-03-22T08:44:31;2.13;;;0.85;;
21825;SDS011;11075;47.944;11.776;2023-03-22T08:47:00;1.95;;;1.10;;
21825;SDS011;11075;47.944;11.776;2023-03-22T08:49:29;13.27;;;2.72;;
21825;SDS011;11075;47.944;11.776;2023-03-22T08:52:03;3.05;;;1.75;;
21825;SDS011;11075;47.944;11.776;2023-03-22T08:54:49;2.80;;;1.65;;
21825;SDS011;11075;47.944;11.776;2023-03-22T08:57:37;6.03;;;2.30;;
21825;SDS011;11075;47.944;11.776;2023-03-22T09:00:23;4.90;;;1.80;;
21825;SDS011;11075;47.944;11.776;2023-03-22T09:03:17;5.00;;;2.30;;
21825;SDS011;11075;47.944;11.776;2023-03-22T09:05:44;2.58;;;2.35;;
21825;SDS011;11075;47.944;11.776;2023-03-22T09:08:11;3.95;;;1.98;;
21825;SDS011;11075;47.944;11.776;2023-03-22T09:10:47;3.05;;;2.28;;
21825;SDS011;11075;47.944;11.776;2023-03-22T09:13:19;7.07;;;2.10;;
21825;SDS011;11075;47.944;11.776;2023-03-22T09:15:52;4.55;;;2.13;;
21825;SDS011;11075;47.944;11.776;2023-03-22T09:18:23;3.35;;;2.08;;
21825;SDS011;11075;47.944;11.776;2023-03-22T09:20:52;3.33;;;1.88;;
21825;SDS011;11075;47.944;11.776;2023-03-22T09:23:23;2.65;;;1.83;;
21825;SDS011;11075;47.944;11.776;2023-03-22T09:25:51;2.47;;;2.00;;
21825;SDS011;11075;47.944;11.776;2023-03-22T09:28:21;4.07;;;2.13;;
21825;SDS011;11075;47.944;11.776;2023-03-22T09:30:50;5.53;;;2.65;;
21825;SDS011;11075;47.944;11.776;2023-03-22T09:33:17;3.08;;;2.20;;
21825;SDS011;11075;47.944;11.776;2023-03-22T09:35:48;2.50;;;2.05;;
21825;SDS011;11075;47.944;11.776;2023-03-22T09:38:15;8.05;;;2.67;;
21825;SDS011;11075;47.944;11.776;2023-03-22T09:41:29;2.75;;;2.28;;
21825;SDS011;11075;47.944;11.776;2023-03-22T09:44:00;2.75;;;1.95;;
21825;SDS011;11075;47.944;11.776;2023-03-22T09:46:29;1.85;;;1.52;;
21825;SDS011;11075;47.944;11.776;2023-03-22T09:49:05;1.60;;;1.50;;
21825;SDS011;11075;47.944;11.776;2023-03-22T09:51:47;2.08;;;1.52;;
21825;SDS011;11075;47.944;11.776;2023-03-22T09:54:27;2.40;;;1.77;;
21825;SDS011;11075;47.944;11.776;2023-03-22T10:10:50;2.13;;;1.42;;
21825;SDS011;11075;47.944;11.776;2023-03-22T10:16:12;6.43;;;1.80;;
21825;SDS011;11075;47.944;11.776;2023-03-22T10:18:51;4.72;;;2.03;;
21825;SDS011;11075;47.944;11.776;2023-03-22T10:21:24;2.65;;;1.70;;
21825;SDS011;11075;47.944;11.776;2023-03-22T10:24:26;3.67;;;1.65;;
21825;SDS011;11075;47.944;11.776;2023-03-22T10:26:51;3.92;;;1.40;;
21825;SDS011;11075;47.944;11.776;2023-03-22T10:29:23;3.15;;;1.70;;
21825;SDS011;11075;47.944;11.776;2023-03-22T10:32:01;1.92;;;1.75;;
21825;SDS011;11075;47.944;11.776;2023-03-22T10:34:45;1.92;;;1.70;;
21825;SDS011;11075;47.944;11.776;2023-03-22T10:37:15;4.30;;;1.95;;
21825;SDS011;11075;47.944;11.776;2023-03-22T10:39:50;2.35;;;1.77;;
21825;SDS011;11075;47.944;11.776;2023-03-22T10:42:21;3.10;;;1.33;;
21825;SDS011;11075;47.944;11.776;2023-03-22T10:44:54;2.95;;;1.65;;
21825;SDS011;11075;47.944;11.776;2023-03-22T10:47:37;1.85;;;1.30;;
21825;SDS011;11075;47.944;11.776;2023-03-22T10:50:12;3.17;;;1.65;;
21825;SDS011;11075;47.944;11.776;2023-03-22T10:52:51;5.70;;;1.60;;
21825;SDS011;11075;47.944;11.776;2023-03-22T10:55:24;4.00;;;1.70;;
21825;SDS011;11075;47.944;11.776;2023-03-22T11:00:49;3.95;;;1.63;;
21825;SDS011;11075;47.944;11.776;2023-03-22T11:08:33;2.35;;;1.10;;
21825;SDS011;11075;47.944;11.776;2023-03-22T11:11:05;1.77;;;1.00;;
21825;SDS011;11075;47.944;11.776;2023-03-22T11:13:33;2.28;;;1.20;;
21825;SDS011;11075;47.944;11.776;2023-03-22T11:16:01;1.73;;;1.10;;
21825;SDS011;11075;47.944;11.776;2023-03-22T11:18:30;2.10;;;1.00;;
21825;SDS011;11075;47.944;11.776;2023-03-22T11:21:00;1.65;;;1.05;;
21825;SDS011;11075;47.944;11.776;2023-03-22T11:23:33;2.33;;;1.38;;
21825;SDS011;11075;47.944;11.776;2023-03-22T11:26:05;1.17;;;1.08;;
21825;SDS011;11075;47.944;11.776;2023-03-22T11:28:36;1.45;;;1.10;;
21825;SDS011;11075;47.944;11.776;2023-03-22T11:31:11;1.95;;;1.00;;
21825;SDS011;11075;47.944;11.776;2023-03-22T11:33:44;4.05;;;1.20;;
21825;SDS011;11075;47.944;11.776;2023-03-22T11:36:24;1.33;;;0.88;;
21825;SDS011;11075;47.944;11.776;2023-03-22T11:38:56;3.10;;;1.00;;
21825;SDS011;11075;47.944;11.776;2023-03-22T11:41:36;2.35;;;1.10;;
21825;SDS011;11075;47.944;11.776;2023-03-22T11:44:10;2.03;;;0.73;;
21825;SDS011;11075;47.944;11.776;2023-03-22T11:46:40;2.65;;;1.10;;
21825;SDS011;11075;47.944;11.776;2023-03-22T11:49:17;2.05;;;1.00;;
21825;SDS011;11075;47.944;11.776;2023-03-22T11:51:44;2.97;;;1.10;;
21825;SDS011;11075;47.944;11.776;2023-03-22T11:56:42;1.70;;;1.00;;
21825;SDS011;11075;47.944;11.776;2023-03-22T11:59:14;1.65;;;1.17;;
21825;SDS011;11075;47.944;11.776;2023-03-22T12:04:40;1.15;;;1.00;;
21825;SDS011;11075;47.944;11.776;2023-03-22T12:07:14;1.20;;;1.10;;
21825;SDS011;11075;47.944;11.776;2023-03-22T12:12:30;1.10;;;0.80;;
21825;SDS011;11075;47.944;11.776;2023-03-22T12:15:13;1.30;;;0.80;;
21825;SDS011;11075;47.944;11.776;2023-03-22T12:20:40;0.88;;;0.68;;
21825;SDS011;11075;47.944;11.776;2023-03-22T12:23:19;2.00;;;0.90;;
21825;SDS011;11075;47.944;11.776;2023-03-22T12:26:04;3.75;;;1.20;;
21825;SDS011;11075;47.944;11.776;2023-03-22T12:28:54;1.35;;;1.10;;
21825;SDS011;11075;47.944;11.776;2023-03-22T12:31:26;2.60;;;0.98;;
21825;SDS011;11075;47.944;11.776;2023-03-22T12:33:59;0.90;;;0.80;;
21825;SDS011;11075;47.944;11.776;2023-03-22T12:36:36;3.45;;;0.90;;
21825;SDS011;11075;47.944;11.776;2023-03-22T12:39:08;1.77;;;0.77;;
21825;SDS011;11075;47.944;11.776;2023-03-22T12:41:46;1.52;;;0.80;;
21825;SDS011;11075;47.944;11.776;2023-03-22T12:44:17;1.17;;;1.00;;
21825;SDS011;11075;47.944;11.776;2023-03-22T12:46:56;1.05;;;0.77;;
21825;SDS011;11075;47.944;11.776;2023-03-22T12:49:37;0.80;;;0.70;;
21825;SDS011;11075;47.944;11.776;2023-03-22T12:52:14;6.50;;;1.00;;
21825;SDS011;11075;47.944;11.776;2023-03-22T12:54:45;0.88;;;0.63;;
21825;SDS011;11075;47.944;11.776;2023-03-22T12:57:15;2.97;;;0.98;;
21825;SDS011;11075;47.944;11.776;2023-03-22T12:59:43;1.08;;;0.77;;
21825;SDS011;11075;47.944;11.776;2023-03-22T13:02:16;1.20;;;1.00;;
21825;SDS011;11075;47.944;11.776;2023-03-22T13:04:50;1.05;;;0.80;;
21825;SDS011;11075;47.944;11.776;2023-03-22T13:13:08;0.52;;;0.52;;
21825;SDS011;11075;47.944;11.776;2023-03-22T13:15:38;1.70;;;0.68;;
21825;SDS011;11075;47.944;11.776;2023-03-22T13:29:23;1.25;;;0.70;;
21825;SDS011;11075;47.944;11.776;2023-03-22T13:31:59;2.22;;;0.82;;
21825;SDS011;11075;47.944;11.776;2023-03-22T13:36:59;8.23;;;5.07;;
21825;SDS011;11075;47.944;11.776;2023-03-22T13:39:32;1.48;;;1.20;;
21825;SDS011;11075;47.944;11.776;2023-03-22T13:42:14;4.78;;;3.30;;
21825;SDS011;11075;47.944;11.776;2023-03-22T13:44:44;2.45;;;1.65;;
21825;SDS011;11075;47.944;11.776;2023-03-22T13:50:09;0.68;;;0.60;;
21825;SDS011;11075;47.944;11.776;2023-03-22T13:53:01;2.15;;;0.70;;
21825;SDS011;11075;47.944;11.776;2023-03-22T14:01:02;1.38;;;0.65;;
21825;SDS011;11075;47.944;11.776;2023-03-22T14:03:35;0.90;;;0.70;;
21825;SDS011;11075;47.944;11.776;2023-03-22T14:06:13;0.88;;;0.65;;
21825;SDS011;11075;47.944;11.776;2023-03-22T14:08:45;2.40;;;0.88;;
21825;SDS011;11075;47.944;11.776;2023-03-22T14:14:04;2.80;;;0.93;;
21825;SDS011;11075;47.944;11.776;2023-03-22T14:16:39;1.10;;;0.70;;
21825;SDS011;11075;47.944;11.776;2023-03-22T14:19:13;0.60;;;0.60;;
21825;SDS011;11075;47.944;11.776;2023-03-22T14:21:54;3.17;;;1.00;;
21825;SDS011;11075;47.944;11.776;2023-03-22T14:24:23;1.60;;;0.85;;
21825;SDS011;11075;47.944;11.776;2023-03-22T14:26:52;1.67;;;1.02;;
21825;SDS011;11075;47.944;11.776;2023-03-22T14:29:21;1.48;;;0.98;;
21825;SDS011;11075;47.944;11.776;2023-03-22T14:32:01;1.85;;;0.80;;
21825;SDS011;11075;47.944;11.776;2023-03-22T14:34:30;1.17;;;0.80;;
21825;SDS011;11075;47.944;11.776;2023-03-22T14:37:03;1.45;;;0.88;;
21825;SDS011;11075;47.944;11.776;2023-03-22T14:39:39;2.03;;;0.90;;
21825;SDS011;11075;47.944;11.776;2023-03-22T14:45:05;2.10;;;1.08;;
21825;SDS011;11075;47.944;11.776;2023-03-22T14:47:42;1.23;;;0.70;;
21825;SDS011;11075;47.944;11.776;2023-03-22T14:50:16;1.25;;;0.80;;
21825;SDS011;11075;47.944;11.776;2023-03-22T14:52:47;0.80;;;0.80;;
21825;SDS011;11075;47.944;11.776;2023-03-22T14:55:17;3.00;;;1.00;;
21825;SDS011;11075;47.944;11.776;2023-03-22T14:57:51;0.82;;;0.70;;
21825;SDS011;11075;47.944;11.776;2023-03-22T15:00:20;0.93;;;0.70;;
21825;SDS011;11075;47.944;11.776;2023-03-22T15:02:47;6.45;;;1.65;;
21825;SDS011;11075;47.944;11.776;2023-03-22T15:05:21;1.33;;;0.95;;
21825;SDS011;11075;47.944;11.776;2023-03-22T15:08:04;2.38;;;1.00;;
21825;SDS011;11075;47.944;11.776;2023-03-22T15:10:32;8.75;;;1.60;;
21825;SDS011;11075;47.944;11.776;2023-03-22T15:13:01;2.22;;;0.80;;
21825;SDS011;11075;47.944;11.776;2023-03-22T15:15:29;2.40;;;0.88;;
21825;SDS011;11075;47.944;11.776;2023-03-22T15:18:00;1.75;;;1.02;;
21825;SDS011;11075;47.944;11.776;2023-03-22T15:20:28;2.33;;;1.10;;
21825;SDS011;11075;47.944;11.776;2023-03-22T15:22:57;2.75;;;1.05;;
21825;SDS011;11075;47.944;11.776;2023-03-22T15:25:31;2.75;;;1.02;;
21825;SDS011;11075;47.944;11.776;2023-03-22T15:27:59;1.00;;;1.00;;
21825;SDS011;11075;47.944;11.776;2023-03-22T15:30:25;1.20;;;0.98;;
21825;SDS011;11075;47.944;11.776;2023-03-22T15:32:52;3.05;;;1.10;;
21825;SDS011;11075;47.944;11.776;2023-03-22T15:35:26;1.63;;;0.85;;
21825;SDS011;11075;47.944;11.776;2023-03-22T15:37:53;12.15;;;1.20;;
21825;SDS011;11075;47.944;11.776;2023-03-22T15:40:52;2.53;;;0.80;;
21825;SDS011;11075;47.944;11.776;2023-03-22T15:43:29;6.22;;;1.13;;
21825;SDS011;11075;47.944;11.776;2023-03-22T15:48:43;4.72;;;1.20;;
21825;SDS011;11075;47.944;11.776;2023-03-22T15:51:19;2.38;;;0.88;;
21825;SDS011;11075;47.944;11.776;2023-03-22T15:53:48;1.38;;;1.13;;
21825;SDS011;11075;47.944;11.776;2023-03-22T15:56:27;3.65;;;1.35;;
21825;SDS011;11075;47.944;11.776;2023-03-22T15:58:56;2.80;;;1.10;;
21825;SDS011;11075;47.944;11.776;2023-03-22T16:01:24;2.08;;;1.48;;
21825;SDS011;11075;47.944;11.776;2023-03-22T16:03:52;1.50;;;1.08;;
21825;SDS011;11075;47.944;11.776;2023-03-22T16:06:31;2.35;;;1.10;;
21825;SDS011;11075;47.944;11.776;2023-03-22T16:08:57;3.20;;;0.80;;
21825;SDS011;11075;47.944;11.776;2023-03-22T16:11:25;1.38;;;1.13;;
21825;SDS011;11075;47.944;11.776;2023-03-22T16:13:53;2.05;;;1.10;;
21825;SDS011;11075;47.944;11.776;2023-03-22T16:16:20;3.22;;;0.90;;
21825;SDS011;11075;47.944;11.776;2023-03-22T16:18:48;5.00;;;0.80;;
21825;SDS011;11075;47.944;11.776;2023-03-22T16:21:16;2.50;;;0.63;;
21825;SDS011;11075;47.944;11.776;2023-03-22T16:23:45;3.80;;;0.95;;
21825;SDS011;11075;47.944;11.776;2023-03-22T16:26:14;9.77;;;0.68;;
21825;SDS011;11075;47.944;11.776;2023-03-22T16:28:44;5.45;;;1.00;;
21825;SDS011;11075;47.944;11.776;2023-03-22T16:31:11;1.42;;;0.93;;
21825;SDS011;11075;47.944;11.776;2023-03-22T16:33:39;6.28;;;0.82;;
21825;SDS011;11075;47.944;11.776;2023-03-22T16:36:06;3.03;;;1.02;;
21825;SDS011;11075;47.944;11.776;2023-03-22T16:38:35;5.10;;;0.90;;
21825;SDS011;11075;47.944;11.776;2023-03-22T16:41:01;1.95;;;1.10;;
21825;SDS011;11075;47.944;11.776;2023-03-22T16:43:30;12.68;;;1.70;;
21825;SDS011;11075;47.944;11.776;2023-03-22T16:45:55;12.05;;;1.30;;
21825;SDS011;11075;47.944;11.776;2023-03-22T16:48:21;5.43;;;0.85;;
21825;SDS011;11075;47.944;11.776;2023-03-22T16:50:48;3.38;;;1.60;;
21825;SDS011;11075;47.944;11.776;2023-03-22T16:53:15;11.63;;;1.00;;
21825;SDS011;11075;47.944;11.776;2023-03-22T16:55:42;8.45;;;1.27;;
21825;SDS011;11075;47.944;11.776;2023-03-22T16:58:08;3.88;;;0.98;;
21825;SDS011;11075;47.944;11.776;2023-03-22T17:00:33;3.55;;;1.15;;
21825;SDS011;11075;47.944;11.776;2023-03-22T17:03:00;1.65;;;0.88;;